sensor_id;sensor_type;location;lat;lon;timestamp;pressure;altitude;pressure_sealevel;temperature;humidity
60845;BME280;47984;51.250;6.712;2022-08-25T00:00:42;101441.03;;;21.87;35.88
60845;BME280;47984;51.250;6.712;2022-08-25T00:03:15;101429.78;;;21.83;35.62
60845;BME280;47984;51.250;6.712;2022-08-25T00:05:44;101432.44;;;21.83;35.84
60845;BME280;47984;51.250;6.712;2022-08-25T00:08:18;101436.91;;;21.83;35.25
60845;BME280;47984;51.250;6.712;2022-08-25T00:10:56;101436.91;;;21.83;35.16
60845;BME280;47984;51.250;6.712;2022-08-25T00:13:29;101423.28;;;21.74;35.27
60845;BME280;47984;51.250;6.712;2022-08-25T00:15:59;101428.31;;;21.79;35.38
60845;BME280;47984;51.250;6.712;2022-08-25T00:18:29;101431.03;;;21.77;35.14
60845;BME280;47984;51.250;6.712;2022-08-25T00:20:59;101442.47;;;21.78;35.83
60845;BME280;47984;51.250;6.712;2022-08-25T00:23:26;101440.88;;;21.75;35.24
60845;BME280;47984;51.250;6.712;2022-08-25T00:25:55;101440.00;;;21.75;35.86
60845;BME280;47984;51.250;6.712;2022-08-25T00:28:29;101430.69;;;21.69;35.37
60845;BME280;47984;51.250;6.712;2022-08-25T00:30:59;101440.22;;;21.72;35.71
60845;BME280;47984;51.250;6.712;2022-08-25T00:33:27;101440.44;;;21.69;35.89
60845;BME280;47984;51.250;6.712;2022-08-25T00:35:59;101443.16;;;21.67;35.29
60845;BME280;47984;51.250;6.712;2022-08-25T00:38:29;101440.84;;;21.63;35.85
60845;BME280;47984;51.250;6.712;2022-08-25T00:40:57;101440.63;;;21.66;35.50
60845;BME280;47984;51.250;6.712;2022-08-25T00:46:10;101457.34;;;21.66;35.65
60845;BME280;47984;51.250;6.712;2022-08-25T00:48:50;101455.84;;;21.62;35.21
60845;BME280;47984;51.250;6.712;2022-08-25T00:51:29;101451.63;;;21.59;35.19
60845;BME280;47984;51.250;6.712;2022-08-25T00:53:59;101447.25;;;21.58;35.25
60845;BME280;47984;51.250;6.712;2022-08-25T00:56:29;101450.00;;;21.57;35.04
60845;BME280;47984;51.250;6.712;2022-08-25T00:58:59;101445.22;;;21.49;35.40
60845;BME280;47984;51.250;6.712;2022-08-25T01:01:31;101457.31;;;21.53;35.29
60845;BME280;47984;51.250;6.712;2022-08-25T01:04:02;101455.78;;;21.49;35.02
60845;BME280;47984;51.250;6.712;2022-08-25T01:06:35;101453.13;;;21.49;35.62
60845;BME280;47984;51.250;6.712;2022-08-25T01:09:12;101451.53;;;21.47;35.63
60845;BME280;47984;51.250;6.712;2022-08-25T01:11:53;101443.53;;;21.48;35.71
60845;BME280;47984;51.250;6.712;2022-08-25T01:14:26;101442.88;;;21.45;35.74
60845;BME280;47984;51.250;6.712;2022-08-25T01:17:14;101451.75;;;21.44;35.21
60845;BME280;47984;51.250;6.712;2022-08-25T01:20:03;101447.53;;;21.41;35.80
60845;BME280;47984;51.250;6.712;2022-08-25T01:22:55;101451.19;;;21.39;35.91
60845;BME280;47984;51.250;6.712;2022-08-25T01:28:16;101441.41;;;21.26;35.83
60845;BME280;47984;51.250;6.712;2022-08-25T01:30:50;101454.44;;;21.29;35.37
60845;BME280;47984;51.250;6.712;2022-08-25T01:33:29;101458.97;;;21.27;35.21
60845;BME280;47984;51.250;6.712;2022-08-25T01:35:58;101443.22;;;21.26;35.32
60845;BME280;47984;51.250;6.712;2022-08-25T01:38:27;101435.09;;;21.15;35.89
60845;BME280;47984;51.250;6.712;2022-08-25T01:40:54;101449.94;;;21.17;35.46
60845;BME280;47984;51.250;6.712;2022-08-25T01:43:50;101450.13;;;21.14;35.45
60845;BME280;47984;51.250;6.712;2022-08-25T01:46:19;101445.00;;;21.11;35.61
60845;BME280;47984;51.250;6.712;2022-08-25T01:48:50;101443.38;;;21.08;35.39
60845;BME280;47984;51.250;6.712;2022-08-25T01:51:24;101447.06;;;21.06;35.40
60845;BME280;47984;51.250;6.712;2022-08-25T01:54:04;101447.19;;;21.04;35.93
60845;BME280;47984;51.250;6.712;2022-08-25T01:56:31;101453.50;;;21.02;35.92
60845;BME280;47984;51.250;6.712;2022-08-25T01:59:02;101451.03;;;20.99;35.43
60845;BME280;47984;51.250;6.712;2022-08-25T02:01:32;101456.59;;;20.94;36.25
60845;BME280;47984;51.250;6.712;2022-08-25T02:04:06;101455.03;;;20.92;35.26
60845;BME280;47984;51.250;6.712;2022-08-25T02:06:37;101448.22;;;20.87;36.03
60845;BME280;47984;51.250;6.712;2022-08-25T02:09:15;101452.00;;;20.83;36.08
60845;BME280;47984;51.250;6.712;2022-08-25T02:11:50;101454.81;;;20.80;35.32
60845;BME280;47984;51.250;6.712;2022-08-25T02:14:23;101456.81;;;20.77;35.93
60845;BME280;47984;51.250;6.712;2022-08-25T02:16:53;101444.72;;;20.73;35.33
60845;BME280;47984;51.250;6.712;2022-08-25T02:19:29;101448.50;;;20.68;35.44
60845;BME280;47984;51.250;6.712;2022-08-25T02:22:13;101450.59;;;20.63;35.68
60845;BME280;47984;51.250;6.712;2022-08-25T02:24:46;101447.38;;;20.58;35.90
60845;BME280;47984;51.250;6.712;2022-08-25T02:27:18;101444.81;;;20.57;36.33
60845;BME280;47984;51.250;6.712;2022-08-25T02:29:53;101448.59;;;20.53;36.05
60845;BME280;47984;51.250;6.712;2022-08-25T02:32:24;101445.19;;;20.51;35.65
60845;BME280;47984;51.250;6.712;2022-08-25T02:34:59;101453.22;;;20.49;36.34
60845;BME280;47984;51.250;6.712;2022-08-25T02:37:28;101437.53;;;20.46;36.35
60845;BME280;47984;51.250;6.712;2022-08-25T02:40:03;101444.69;;;20.44;36.13
60845;BME280;47984;51.250;6.712;2022-08-25T02:42:52;101439.56;;;20.41;35.74
60845;BME280;47984;51.250;6.712;2022-08-25T02:45:40;101450.25;;;20.39;35.52
60845;BME280;47984;51.250;6.712;2022-08-25T02:48:11;101439.03;;;20.36;36.12
60845;BME280;47984;51.250;6.712;2022-08-25T02:50:45;101430.41;;;20.32;36.16
60845;BME280;47984;51.250;6.712;2022-08-25T02:53:20;101437.59;;;20.30;35.70
60845;BME280;47984;51.250;6.712;2022-08-25T02:55:52;101439.47;;;20.28;36.45
60845;BME280;47984;51.250;6.712;2022-08-25T02:58:22;101434.38;;;20.25;35.73
60845;BME280;47984;51.250;6.712;2022-08-25T03:00:50;101437.13;;;20.24;35.94
60845;BME280;47984;51.250;6.712;2022-08-25T03:03:25;101431.06;;;20.21;36.16
60845;BME280;47984;51.250;6.712;2022-08-25T03:05:55;101425.00;;;20.19;36.40
60845;BME280;47984;51.250;6.712;2022-08-25T03:08:25;101415.50;;;20.17;35.70
60845;BME280;47984;51.250;6.712;2022-08-25T03:11:08;101412.28;;;20.12;35.92
60845;BME280;47984;51.250;6.712;2022-08-25T03:13:39;101418.41;;;20.12;36.31
60845;BME280;47984;51.250;6.712;2022-08-25T03:16:12;101415.00;;;20.10;36.49
60845;BME280;47984;51.250;6.712;2022-08-25T03:18:47;101408.97;;;20.08;36.25
60845;BME280;47984;51.250;6.712;2022-08-25T03:21:29;101407.56;;;20.03;35.93
60845;BME280;47984;51.250;6.712;2022-08-25T03:24:09;101405.00;;;20.01;36.12
60845;BME280;47984;51.250;6.712;2022-08-25T03:26:38;101406.78;;;20.01;36.44
60845;BME280;47984;51.250;6.712;2022-08-25T03:29:31;101403.47;;;19.97;36.05
60845;BME280;47984;51.250;6.712;2022-08-25T03:32:01;101403.59;;;19.95;36.69
60845;BME280;47984;51.250;6.712;2022-08-25T03:34:32;101400.19;;;19.93;36.32
60845;BME280;47984;51.250;6.712;2022-08-25T03:37:07;101405.53;;;19.92;35.69
60845;BME280;47984;51.250;6.712;2022-08-25T03:39:38;101407.44;;;19.90;36.51
60845;BME280;47984;51.250;6.712;2022-08-25T03:42:12;101404.88;;;19.88;36.46
60845;BME280;47984;51.250;6.712;2022-08-25T03:44:42;101406.94;;;19.83;36.17
60845;BME280;47984;51.250;6.712;2022-08-25T03:47:15;101405.28;;;19.81;36.03
60845;BME280;47984;51.250;6.712;2022-08-25T03:49:49;101401.97;;;19.77;35.99
60845;BME280;47984;51.250;6.712;2022-08-25T03:52:16;101408.28;;;19.74;36.65
60845;BME280;47984;51.250;6.712;2022-08-25T03:55:12;101405.22;;;19.66;36.18
60845;BME280;47984;51.250;6.712;2022-08-25T03:57:44;101411.16;;;19.70;36.52
60845;BME280;47984;51.250;6.712;2022-08-25T04:00:18;101400.22;;;19.62;36.11
60845;BME280;47984;51.250;6.712;2022-08-25T04:02:57;101400.13;;;19.63;36.22
60845;BME280;47984;51.250;6.712;2022-08-25T04:05:27;101382.78;;;19.59;36.02
60845;BME280;47984;51.250;6.712;2022-08-25T04:07:55;101383.97;;;19.53;36.86
60845;BME280;47984;51.250;6.712;2022-08-25T04:10:26;101371.66;;;19.54;36.76
60845;BME280;47984;51.250;6.712;2022-08-25T04:12:53;101370.97;;;19.50;36.99
60845;BME280;47984;51.250;6.712;2022-08-25T04:15:43;101378.22;;;19.47;36.22
60845;BME280;47984;51.250;6.712;2022-08-25T04:18:11;101373.97;;;19.44;36.60
60845;BME280;47984;51.250;6.712;2022-08-25T04:20:50;101374.13;;;19.41;36.81
60845;BME280;47984;51.250;6.712;2022-08-25T04:23:28;101379.75;;;19.35;36.56
60845;BME280;47984;51.250;6.712;2022-08-25T04:25:56;101377.97;;;19.36;36.79
60845;BME280;47984;51.250;6.712;2022-08-25T04:28:24;101378.13;;;19.33;37.00
60845;BME280;47984;51.250;6.712;2022-08-25T04:30:51;101386.03;;;19.33;36.38
60845;BME280;47984;51.250;6.712;2022-08-25T04:33:18;101381.78;;;19.30;36.83
60845;BME280;47984;51.250;6.712;2022-08-25T04:35:48;101395.06;;;19.28;36.91
60845;BME280;47984;51.250;6.712;2022-08-25T04:38:16;101387.34;;;19.25;36.37
60845;BME280;47984;51.250;6.712;2022-08-25T04:40:43;101389.31;;;19.22;36.93
60845;BME280;47984;51.250;6.712;2022-08-25T04:43:09;101394.56;;;19.22;36.38
60845;BME280;47984;51.250;6.712;2022-08-25T04:45:38;101388.63;;;19.18;36.37
60845;BME280;47984;51.250;6.712;2022-08-25T04:48:06;101389.63;;;19.16;36.25
60845;BME280;47984;51.250;6.712;2022-08-25T04:50:37;101385.38;;;19.13;36.61
60845;BME280;47984;51.250;6.712;2022-08-25T04:53:04;101387.22;;;19.11;36.78
60845;BME280;47984;51.250;6.712;2022-08-25T04:55:31;101388.25;;;19.08;36.79
60845;BME280;47984;51.250;6.712;2022-08-25T04:57:58;101386.63;;;19.06;37.32
60845;BME280;47984;51.250;6.712;2022-08-25T05:00:25;101386.69;;;19.04;37.10
60845;BME280;47984;51.250;6.712;2022-08-25T05:02:52;101385.00;;;19.03;36.50
60845;BME280;47984;51.250;6.712;2022-08-25T05:05:21;101381.78;;;18.98;36.81
60845;BME280;47984;51.250;6.712;2022-08-25T05:07:48;101381.88;;;18.97;36.71
60845;BME280;47984;51.250;6.712;2022-08-25T05:10:15;101385.34;;;18.97;36.72
60845;BME280;47984;51.250;6.712;2022-08-25T05:12:42;101379.47;;;18.92;37.42
60845;BME280;47984;51.250;6.712;2022-08-25T05:15:10;101382.94;;;18.93;37.25
60845;BME280;47984;51.250;6.712;2022-08-25T05:17:55;101381.38;;;18.90;37.09
60845;BME280;47984;51.250;6.712;2022-08-25T05:20:23;101384.06;;;18.89;37.17
60845;BME280;47984;51.250;6.712;2022-08-25T05:22:50;101385.00;;;18.88;37.27
60845;BME280;47984;51.250;6.712;2022-08-25T05:25:17;101382.44;;;18.86;36.56
60845;BME280;47984;51.250;6.712;2022-08-25T05:27:44;101378.97;;;18.85;37.13
60845;BME280;47984;51.250;6.712;2022-08-25T05:30:12;101379.91;;;18.84;37.14
60845;BME280;47984;51.250;6.712;2022-08-25T05:32:39;101371.22;;;18.82;37.48
60845;BME280;47984;51.250;6.712;2022-08-25T05:35:07;101369.59;;;18.80;37.02
60845;BME280;47984;51.250;6.712;2022-08-25T05:37:34;101377.50;;;18.80;36.95
60845;BME280;47984;51.250;6.712;2022-08-25T05:40:02;101375.72;;;18.80;37.13
60845;BME280;47984;51.250;6.712;2022-08-25T05:42:29;101373.09;;;18.80;37.56
60845;BME280;47984;51.250;6.712;2022-08-25T05:44:56;101370.53;;;18.79;37.13
60845;BME280;47984;51.250;6.712;2022-08-25T05:47:23;101371.50;;;18.78;36.98
60845;BME280;47984;51.250;6.712;2022-08-25T05:49:50;101367.13;;;18.77;37.41
60845;BME280;47984;51.250;6.712;2022-08-25T05:52:16;101361.13;;;18.75;37.42
60845;BME280;47984;51.250;6.712;2022-08-25T05:54:46;101367.13;;;18.77;37.57
60845;BME280;47984;51.250;6.712;2022-08-25T05:57:13;101360.19;;;18.76;37.54
60845;BME280;47984;51.250;6.712;2022-08-25T05:59:40;101355.75;;;18.76;37.02
60845;BME280;47984;51.250;6.712;2022-08-25T06:02:07;101363.59;;;18.78;37.46
60845;BME280;47984;51.250;6.712;2022-08-25T06:04:52;101351.25;;;18.78;37.02
60845;BME280;47984;51.250;6.712;2022-08-25T06:07:19;101352.88;;;18.81;37.80
60845;BME280;47984;51.250;6.712;2022-08-25T06:09:46;101356.25;;;18.83;37.62
60845;BME280;47984;51.250;6.712;2022-08-25T06:12:16;101355.41;;;18.82;38.06
60845;BME280;47984;51.250;6.712;2022-08-25T06:14:43;101370.03;;;18.88;37.00
60845;BME280;47984;51.250;6.712;2022-08-25T06:17:10;101368.09;;;18.92;37.87
60845;BME280;47984;51.250;6.712;2022-08-25T06:19:37;101374.13;;;18.94;37.32
60845;BME280;47984;51.250;6.712;2022-08-25T06:22:06;101371.16;;;19.00;37.82
60845;BME280;47984;51.250;6.712;2022-08-25T06:24:33;101362.06;;;19.05;37.33
60845;BME280;47984;51.250;6.712;2022-08-25T06:27:00;101359.16;;;19.10;37.43
60845;BME280;47984;51.250;6.712;2022-08-25T06:29:27;101360.66;;;19.16;37.79
60845;BME280;47984;51.250;6.712;2022-08-25T06:31:54;101363.84;;;19.21;37.67
60845;BME280;47984;51.250;6.712;2022-08-25T06:34:22;101371.41;;;19.27;37.84
60845;BME280;47984;51.250;6.712;2022-08-25T06:36:50;101378.06;;;19.34;38.06
60845;BME280;47984;51.250;6.712;2022-08-25T06:39:17;101375.94;;;19.41;37.87
60845;BME280;47984;51.250;6.712;2022-08-25T06:41:44;101372.84;;;19.48;37.78
60845;BME280;47984;51.250;6.712;2022-08-25T06:44:11;101373.38;;;19.55;37.72
60845;BME280;47984;51.250;6.712;2022-08-25T06:46:38;101374.69;;;19.62;37.37
60845;BME280;47984;51.250;6.712;2022-08-25T06:49:05;101377.72;;;19.70;37.31
60845;BME280;47984;51.250;6.712;2022-08-25T06:51:32;101377.28;;;19.78;37.48
60845;BME280;47984;51.250;6.712;2022-08-25T06:54:03;101377.75;;;19.86;37.29
60845;BME280;47984;51.250;6.712;2022-08-25T06:56:31;101380.84;;;19.93;37.64
60845;BME280;47984;51.250;6.712;2022-08-25T06:59:00;101391.72;;;20.03;37.23
60845;BME280;47984;51.250;6.712;2022-08-25T07:01:28;101385.13;;;20.10;37.71
60845;BME280;47984;51.250;6.712;2022-08-25T07:04:00;101391.66;;;20.18;37.34
60845;BME280;47984;51.250;6.712;2022-08-25T07:06:29;101383.25;;;20.26;37.30
60845;BME280;47984;51.250;6.712;2022-08-25T07:08:57;101374.78;;;20.35;37.01
60845;BME280;47984;51.250;6.712;2022-08-25T07:11:24;101376.13;;;20.42;37.77
60845;BME280;47984;51.250;6.712;2022-08-25T07:13:52;101378.22;;;20.52;37.01
60845;BME280;47984;51.250;6.712;2022-08-25T07:16:20;101381.22;;;20.60;37.64
60845;BME280;47984;51.250;6.712;2022-08-25T07:18:48;101371.88;;;20.68;37.42
60845;BME280;47984;51.250;6.712;2022-08-25T07:21:15;101372.34;;;20.75;37.10
60845;BME280;47984;51.250;6.712;2022-08-25T07:23:46;101375.44;;;20.82;37.08
60845;BME280;47984;51.250;6.712;2022-08-25T07:26:19;101369.69;;;20.89;37.63
60845;BME280;47984;51.250;6.712;2022-08-25T07:29:09;101376.94;;;21.00;36.97
60845;BME280;47984;51.250;6.712;2022-08-25T07:31:36;101378.13;;;21.09;37.12
60845;BME280;47984;51.250;6.712;2022-08-25T07:34:04;101378.53;;;21.17;37.46
60845;BME280;47984;51.250;6.712;2022-08-25T07:36:52;101370.09;;;21.25;37.66
60845;BME280;47984;51.250;6.712;2022-08-25T07:39:20;101374.78;;;21.34;37.67
60845;BME280;47984;51.250;6.712;2022-08-25T07:41:51;101373.47;;;21.41;37.10
60845;BME280;47984;51.250;6.712;2022-08-25T07:44:21;101365.75;;;21.51;36.80
60845;BME280;47984;51.250;6.712;2022-08-25T07:46:49;101362.59;;;21.58;37.82
60845;BME280;47984;51.250;6.712;2022-08-25T07:49:20;101364.63;;;21.68;37.50
60845;BME280;47984;51.250;6.712;2022-08-25T07:51:50;101365.06;;;21.74;37.37
60845;BME280;47984;51.250;6.712;2022-08-25T07:54:33;101372.41;;;21.84;36.98
60845;BME280;47984;51.250;6.712;2022-08-25T07:57:05;101376.38;;;21.91;37.17
60845;BME280;47984;51.250;6.712;2022-08-25T07:59:33;101379.31;;;21.99;37.48
60845;BME280;47984;51.250;6.712;2022-08-25T08:02:08;101367.38;;;22.06;37.17
60845;BME280;47984;51.250;6.712;2022-08-25T08:04:47;101367.69;;;22.14;37.20
60845;BME280;47984;51.250;6.712;2022-08-25T08:07:17;101355.75;;;22.21;36.73
60845;BME280;47984;51.250;6.712;2022-08-25T08:09:46;101358.59;;;22.31;37.10
60845;BME280;47984;51.250;6.712;2022-08-25T08:12:26;101351.78;;;22.40;37.32
60845;BME280;47984;51.250;6.712;2022-08-25T08:14:54;101357.63;;;22.45;37.23
60845;BME280;47984;51.250;6.712;2022-08-25T08:17:21;101353.38;;;22.55;37.03
60845;BME280;47984;51.250;6.712;2022-08-25T08:19:48;101355.50;;;22.63;37.17
60845;BME280;47984;51.250;6.712;2022-08-25T08:22:15;101342.66;;;22.69;37.17
60845;BME280;47984;51.250;6.712;2022-08-25T08:24:44;101341.25;;;22.77;37.03
60845;BME280;47984;51.250;6.712;2022-08-25T08:27:22;101339.66;;;22.87;36.96
60845;BME280;47984;51.250;6.712;2022-08-25T08:29:49;101331.34;;;22.91;36.98
60845;BME280;47984;51.250;6.712;2022-08-25T08:32:16;101334.22;;;23.01;36.47
60845;BME280;47984;51.250;6.712;2022-08-25T08:34:44;101331.09;;;23.07;37.42
60845;BME280;47984;51.250;6.712;2022-08-25T08:37:17;101333.22;;;23.15;37.30
60845;BME280;47984;51.250;6.712;2022-08-25T08:39:47;101327.44;;;23.21;36.90
60845;BME280;47984;51.250;6.712;2022-08-25T08:48:06;101325.94;;;23.41;36.99
60845;BME280;47984;51.250;6.712;2022-08-25T08:56:27;101309.19;;;23.64;37.04
60845;BME280;47984;51.250;6.712;2022-08-25T08:59:00;101301.47;;;23.73;36.22
60845;BME280;47984;51.250;6.712;2022-08-25T09:01:38;101289.44;;;23.80;37.10
60845;BME280;47984;51.250;6.712;2022-08-25T09:04:12;101294.97;;;23.88;36.88
60845;BME280;47984;51.250;6.712;2022-08-25T09:06:47;101288.09;;;23.97;36.91
60845;BME280;47984;51.250;6.712;2022-08-25T09:09:28;101292.84;;;24.04;36.24
60845;BME280;47984;51.250;6.712;2022-08-25T09:16:05;101290.69;;;24.21;36.23
60845;BME280;47984;51.250;6.712;2022-08-25T09:23:37;101281.13;;;24.41;36.03
60845;BME280;47984;51.250;6.712;2022-08-25T09:26:18;101281.47;;;24.47;36.12
60845;BME280;47984;51.250;6.712;2022-08-25T09:29:01;101284.50;;;24.54;36.71
60845;BME280;47984;51.250;6.712;2022-08-25T09:31:34;101284.84;;;24.61;35.98
60845;BME280;47984;51.250;6.712;2022-08-25T09:34:10;101280.72;;;24.68;36.05
60845;BME280;47984;51.250;6.712;2022-08-25T09:36:38;101281.06;;;24.74;35.81
60845;BME280;47984;51.250;6.712;2022-08-25T09:39:06;101278.78;;;24.81;36.62
60845;BME280;47984;51.250;6.712;2022-08-25T09:41:53;101277.31;;;24.88;36.27
60845;BME280;47984;51.250;6.712;2022-08-25T09:44:40;101276.81;;;24.94;36.21
60845;BME280;47984;51.250;6.712;2022-08-25T09:47:22;101271.69;;;25.02;35.89
60845;BME280;47984;51.250;6.712;2022-08-25T09:49:56;101269.38;;;25.09;36.25
60845;BME280;47984;51.250;6.712;2022-08-25T09:52:37;101267.06;;;25.16;36.07
60845;BME280;47984;51.250;6.712;2022-08-25T10:00:22;101256.44;;;25.37;35.65
60845;BME280;47984;51.250;6.712;2022-08-25T10:06:11;101252.47;;;25.52;36.10
60845;BME280;47984;51.250;6.712;2022-08-25T10:11:13;101249.88;;;25.62;35.51
60845;BME280;47984;51.250;6.712;2022-08-25T10:16:31;101244.47;;;25.73;35.65
60845;BME280;47984;51.250;6.712;2022-08-25T10:19:25;101243.22;;;25.77;35.74
60845;BME280;47984;51.250;6.712;2022-08-25T10:22:24;101241.75;;;25.84;35.68
60845;BME280;47984;51.250;6.712;2022-08-25T10:24:58;101236.16;;;25.87;35.63
60845;BME280;47984;51.250;6.712;2022-08-25T10:35:32;101215.50;;;26.10;35.77
60845;BME280;47984;51.250;6.712;2022-08-25T10:38:13;101216.06;;;26.14;35.94
60845;BME280;47984;51.250;6.712;2022-08-25T10:46:15;101209.81;;;26.34;35.35
60845;BME280;47984;51.250;6.712;2022-08-25T10:49:12;101206.47;;;26.42;35.31
60845;BME280;47984;51.250;6.712;2022-08-25T10:54:47;101194.03;;;26.52;34.94
60845;BME280;47984;51.250;6.712;2022-08-25T11:00:22;101186.72;;;26.64;35.32
60845;BME280;47984;51.250;6.712;2022-08-25T11:06:04;101187.31;;;26.77;34.84
60845;BME280;47984;51.250;6.712;2022-08-25T11:08:42;101175.38;;;26.81;35.57
60845;BME280;47984;51.250;6.712;2022-08-25T11:13:54;101179.72;;;26.92;35.15
60845;BME280;47984;51.250;6.712;2022-08-25T11:19:10;101170.75;;;27.03;34.74
60845;BME280;47984;51.250;6.712;2022-08-25T11:24:41;101158.22;;;27.13;34.62
60845;BME280;47984;51.250;6.712;2022-08-25T11:27:19;101160.59;;;27.16;34.81
60845;BME280;47984;51.250;6.712;2022-08-25T11:29:57;101162.00;;;27.20;34.60
60845;BME280;47984;51.250;6.712;2022-08-25T11:32:26;101159.06;;;27.23;34.89
60845;BME280;47984;51.250;6.712;2022-08-25T11:34:54;101157.78;;;27.27;34.55
60845;BME280;47984;51.250;6.712;2022-08-25T11:37:26;101160.00;;;27.32;34.68
60845;BME280;47984;51.250;6.712;2022-08-25T11:43:04;101158.28;;;27.41;34.31
60845;BME280;47984;51.250;6.712;2022-08-25T11:45:57;101156.31;;;27.43;34.80
60845;BME280;47984;51.250;6.712;2022-08-25T11:48:40;101156.03;;;27.46;34.39
60845;BME280;47984;51.250;6.712;2022-08-25T11:51:28;101149.56;;;27.48;34.70
60845;BME280;47984;51.250;6.712;2022-08-25T11:54:22;101145.75;;;27.51;34.37
60845;BME280;47984;51.250;6.712;2022-08-25T12:02:32;101146.75;;;27.50;34.20
60845;BME280;47984;51.250;6.712;2022-08-25T12:10:56;101128.47;;;27.55;34.23
60845;BME280;47984;51.250;6.712;2022-08-25T12:13:48;101125.66;;;27.57;34.10
60845;BME280;47984;51.250;6.712;2022-08-25T12:19:46;101120.84;;;27.60;33.91
60845;BME280;47984;51.250;6.712;2022-08-25T12:32:45;101107.19;;;27.63;34.14
60845;BME280;47984;51.250;6.712;2022-08-25T12:38:15;101099.19;;;27.63;34.01
60845;BME280;47984;51.250;6.712;2022-08-25T12:43:28;101095.56;;;27.64;34.03
60845;BME280;47984;51.250;6.712;2022-08-25T13:00:22;101086.25;;;27.68;33.72
60845;BME280;47984;51.250;6.712;2022-08-25T13:08:46;101082.56;;;27.69;33.22
60845;BME280;47984;51.250;6.712;2022-08-25T13:11:18;101091.28;;;27.71;33.40
60845;BME280;47984;51.250;6.712;2022-08-25T13:16:31;101080.59;;;27.71;33.26
60845;BME280;47984;51.250;6.712;2022-08-25T13:19:03;101077.94;;;27.71;33.28
60845;BME280;47984;51.250;6.712;2022-08-25T13:21:38;101075.25;;;27.71;32.92
60845;BME280;47984;51.250;6.712;2022-08-25T13:24:13;101068.91;;;27.72;33.40
60845;BME280;47984;51.250;6.712;2022-08-25T13:26:43;101068.91;;;27.72;33.17
60845;BME280;47984;51.250;6.712;2022-08-25T13:29:19;101057.41;;;27.72;33.46
60845;BME280;47984;51.250;6.712;2022-08-25T13:32:07;101064.28;;;27.74;33.00
60845;BME280;47984;51.250;6.712;2022-08-25T13:34:41;101061.63;;;27.74;33.26
60845;BME280;47984;51.250;6.712;2022-08-25T13:37:22;101049.09;;;27.75;33.39
60845;BME280;47984;51.250;6.712;2022-08-25T13:42:40;101052.59;;;27.75;33.12
60845;BME280;47984;51.250;6.712;2022-08-25T13:45:14;101047.97;;;27.78;33.26
60845;BME280;47984;51.250;6.712;2022-08-25T13:47:43;101036.28;;;27.79;32.95
60845;BME280;47984;51.250;6.712;2022-08-25T13:53:10;101034.16;;;27.82;32.44
60845;BME280;47984;51.250;6.712;2022-08-25T13:58:21;101036.53;;;27.85;33.12
60845;BME280;47984;51.250;6.712;2022-08-25T14:01:24;101027.50;;;27.86;33.02
60845;BME280;47984;51.250;6.712;2022-08-25T14:09:47;101026.91;;;27.92;32.22
60845;BME280;47984;51.250;6.712;2022-08-25T14:12:32;101034.75;;;27.94;32.47
60845;BME280;47984;51.250;6.712;2022-08-25T14:15:03;101024.78;;;27.96;32.54
60845;BME280;47984;51.250;6.712;2022-08-25T14:17:30;101030.94;;;27.96;32.37
60845;BME280;47984;51.250;6.712;2022-08-25T14:20:17;101023.63;;;27.98;32.52
60845;BME280;47984;51.250;6.712;2022-08-25T14:22:45;101018.41;;;27.97;32.40
60845;BME280;47984;51.250;6.712;2022-08-25T14:25:12;101017.84;;;28.03;32.45
60845;BME280;47984;51.250;6.712;2022-08-25T14:27:43;101016.00;;;28.04;32.05
60845;BME280;47984;51.250;6.712;2022-08-25T14:30:33;101022.03;;;28.06;32.26
60845;BME280;47984;51.250;6.712;2022-08-25T14:33:01;101019.25;;;28.07;32.29
60845;BME280;47984;51.250;6.712;2022-08-25T14:35:30;101014.56;;;28.09;32.19
60845;BME280;47984;51.250;6.712;2022-08-25T14:37:57;101007.53;;;28.08;32.09
60845;BME280;47984;51.250;6.712;2022-08-25T14:40:24;101014.25;;;28.12;32.37
60845;BME280;47984;51.250;6.712;2022-08-25T14:42:56;101006.94;;;28.14;32.12
60845;BME280;47984;51.250;6.712;2022-08-25T14:45:23;101003.13;;;28.17;32.00
60845;BME280;47984;51.250;6.712;2022-08-25T14:47:50;101003.78;;;28.19;31.95
60845;BME280;47984;51.250;6.712;2022-08-25T14:50:18;101003.94;;;28.17;32.04
60845;BME280;47984;51.250;6.712;2022-08-25T14:52:46;101002.94;;;28.18;32.16
60845;BME280;47984;51.250;6.712;2022-08-25T14:55:18;100998.44;;;28.19;32.05
60845;BME280;47984;51.250;6.712;2022-08-25T14:57:58;100993.94;;;28.19;31.75
60845;BME280;47984;51.250;6.712;2022-08-25T15:00:25;100998.00;;;28.24;31.53
60845;BME280;47984;51.250;6.712;2022-08-25T15:02:53;100985.47;;;28.24;31.81
60845;BME280;47984;51.250;6.712;2022-08-25T15:05:23;100984.13;;;28.28;31.74
60845;BME280;47984;51.250;6.712;2022-08-25T15:07:54;100986.81;;;28.28;31.61
60845;BME280;47984;51.250;6.712;2022-08-25T15:10:41;100979.97;;;28.26;31.67
60845;BME280;47984;51.250;6.712;2022-08-25T15:13:09;100984.13;;;28.28;31.58
60845;BME280;47984;51.250;6.712;2022-08-25T15:15:39;100970.78;;;28.28;31.25
60845;BME280;47984;51.250;6.712;2022-08-25T15:18:19;100978.66;;;28.30;31.58
60845;BME280;47984;51.250;6.712;2022-08-25T15:20:48;100974.16;;;28.30;31.34
60845;BME280;47984;51.250;6.712;2022-08-25T15:23:17;100972.16;;;28.32;31.53
60845;BME280;47984;51.250;6.712;2022-08-25T15:25:46;100969.31;;;28.34;31.41
60845;BME280;47984;51.250;6.712;2022-08-25T15:28:19;100958.81;;;28.32;31.24
60845;BME280;47984;51.250;6.712;2022-08-25T15:30:49;100963.97;;;28.34;31.38
60845;BME280;47984;51.250;6.712;2022-08-25T15:33:16;100962.31;;;28.33;31.53
60845;BME280;47984;51.250;6.712;2022-08-25T15:35:44;100960.16;;;28.36;31.47
60845;BME280;47984;51.250;6.712;2022-08-25T15:38:11;100965.34;;;28.38;31.30
60845;BME280;47984;51.250;6.712;2022-08-25T15:40:39;100965.34;;;28.38;31.43